Lionhead Wind

Located west of Lionhead Ridge near West Yellowstone. Same location as GNFAC station that reports snow depth, temp and RH which has data HERE. This data is also available to view at dataGarrison.com.

Elevation
8775ft
Jump to table bottom
Date Time Temperature
deg F
RH, % Wind Speed Wind Gust Wind Direction
03/03/21 09:48 0 3 8 SW - 234
03/03/21 08:48 0 3 7 SW - 225
03/03/21 07:48 0 4 8 S - 191
03/03/21 06:48 0 3 5 SE - 143
03/03/21 05:48 0 3 7 S - 173
03/03/21 04:48 0 4 10 S - 198
03/03/21 03:48 0 6 11 S - 202
03/03/21 02:48 0 5 13 SW - 216
03/03/21 01:48 0 6 11 S - 194
03/03/21 00:48 0 7 15 S - 185
03/02/21 23:48 0 6 13 S - 181
03/02/21 22:48 0 7 19 SW - 220
03/02/21 21:48 0 12 23 SW - 241
03/02/21 20:48 0 13 21 SW - 247
03/02/21 19:48 0 8 16 SW - 226
03/02/21 18:48 0 10 19 SW - 216
03/02/21 17:48 0 14 22 SW - 218
03/02/21 16:48 0 13 20 SW - 223
03/02/21 15:48 0 12 21 SW - 218
03/02/21 14:48 0 14 24 SW - 211
03/02/21 13:48 0 14 23 SW - 208
03/02/21 12:48 0 12 20 SW - 208
03/02/21 11:48 0 8 15 S - 185
03/02/21 10:48 0 9 14 S - 197
03/02/21 09:48 0 6 16 SW - 222
03/02/21 08:48 0 4 8 SW - 215
03/02/21 07:48 0 3 8 SW - 216
03/02/21 06:48 0 3 7 S - 173
03/02/21 05:48 0 3 7 S - 180
03/02/21 04:48 0 4 10 SW - 204
03/02/21 03:48 0 6 12 SW - 230
03/02/21 02:48 0 8 14 SW - 212
03/02/21 01:48 0 7 12 SW - 205
03/02/21 00:48 0 7 14 SW - 216
03/01/21 23:48 0 6 16 W - 261
03/01/21 22:48 0 9 17 SW - 216
03/01/21 21:48 0 12 24 SW - 225
03/01/21 20:48 0 10 20 SW - 233
03/01/21 19:48 0 11 25 SW - 230
03/01/21 18:48 0 11 20 SW - 232
03/01/21 17:48 0 9 19 SW - 233
03/01/21 16:48 0 9 17 SW - 226
03/01/21 15:48 0 8 16 SW - 219
03/01/21 14:48 0 5 12 SW - 233
03/01/21 13:48 0 6 10 SW - 232
03/01/21 12:48 0 3 8 SW - 204
03/01/21 11:48 0 3 7 SW - 233
03/01/21 10:48 0 5 10 SW - 232
03/01/21 09:48 0 5 11 SW - 234
03/01/21 08:48 0 3 7 SW - 233